createdAt,value
2023-05-24T00:00:25.978Z,2.20
2023-05-24T00:01:26.060Z,2.20
2023-05-24T00:02:26.018Z,2.50
2023-05-24T00:03:26.040Z,2.60
2023-05-24T00:04:26.029Z,2.70
2023-05-24T00:05:25.953Z,2.60
2023-05-24T00:06:25.911Z,2.80
2023-05-24T00:07:25.935Z,2.90
2023-05-24T00:08:26.009Z,2.70
2023-05-24T00:09:25.871Z,2.90
2023-05-24T00:10:25.867Z,2.50
2023-05-24T00:11:25.850Z,2.30
2023-05-24T00:12:25.842Z,2.70
2023-05-24T00:13:25.868Z,2.60
2023-05-24T00:14:25.816Z,2.60
2023-05-24T00:15:25.815Z,2.40
2023-05-24T00:16:25.842Z,2.40
2023-05-24T00:17:25.829Z,2.80
2023-05-24T00:18:25.782Z,2.80
2023-05-24T00:19:25.886Z,2.40
2023-05-24T00:20:25.827Z,3.10
2023-05-24T00:21:25.741Z,3.10
2023-05-24T00:22:25.738Z,3.20
2023-05-24T00:23:25.747Z,3.00
2023-05-24T00:24:25.720Z,2.60
2023-05-24T00:25:25.755Z,2.70
2023-05-24T00:26:25.695Z,2.80
2023-05-24T00:27:25.688Z,2.90
2023-05-24T00:28:25.678Z,2.50
2023-05-24T00:29:25.676Z,2.90
2023-05-24T00:30:25.645Z,3.00
2023-05-24T00:31:25.683Z,2.70
2023-05-24T00:32:25.633Z,2.80
2023-05-24T00:33:25.616Z,2.80
2023-05-24T00:34:25.612Z,2.90
2023-05-24T00:35:25.588Z,3.10
2023-05-24T00:36:25.585Z,3.20
2023-05-24T00:37:25.602Z,2.90
2023-05-24T00:38:25.565Z,3.70
2023-05-24T00:39:25.558Z,3.10
2023-05-24T00:40:25.546Z,2.80
2023-05-24T00:41:25.527Z,3.30
2023-05-24T00:42:25.519Z,3.30
2023-05-24T00:43:25.561Z,3.10
2023-05-24T00:44:25.506Z,3.00
2023-05-24T00:45:25.500Z,3.30
2023-05-24T00:46:25.505Z,2.90
2023-05-24T00:47:25.508Z,3.10
2023-05-24T00:48:25.460Z,3.20
2023-05-24T00:49:25.475Z,3.30
2023-05-24T00:50:25.432Z,3.30
2023-05-24T00:51:25.424Z,3.00
2023-05-24T00:52:25.432Z,3.30
2023-05-24T00:53:25.404Z,3.10
2023-05-24T00:54:25.386Z,3.60
2023-05-24T00:55:25.421Z,3.30
2023-05-24T00:56:25.366Z,3.20
2023-05-24T00:57:25.365Z,3.00
2023-05-24T00:58:25.350Z,3.30
2023-05-24T00:59:25.343Z,3.20
2023-05-24T01:00:25.332Z,3.10
2023-05-24T01:01:25.385Z,2.90
2023-05-24T01:02:25.354Z,3.30
2023-05-24T01:03:25.450Z,3.10
2023-05-24T01:04:25.290Z,3.30
2023-05-24T01:05:25.313Z,3.60
2023-05-24T01:06:25.305Z,3.60
2023-05-24T01:07:25.289Z,3.50
2023-05-24T01:08:25.250Z,3.40
2023-05-24T01:09:25.240Z,3.30
2023-05-24T01:10:25.247Z,3.40
2023-05-24T01:11:25.220Z,3.20
2023-05-24T01:12:25.223Z,3.30
2023-05-24T01:13:25.226Z,3.20
2023-05-24T01:14:25.200Z,2.80
2023-05-24T01:15:25.195Z,3.70
2023-05-24T01:16:25.219Z,3.20
2023-05-24T01:17:25.203Z,3.20
2023-05-24T01:18:25.155Z,3.20
2023-05-24T01:19:25.123Z,3.20
2023-05-24T01:20:25.108Z,3.10
2023-05-24T01:21:25.132Z,3.20
2023-05-24T01:22:25.106Z,3.10
2023-05-24T01:23:25.102Z,3.40
2023-05-24T01:24:25.090Z,3.50
2023-05-24T01:25:25.370Z,3.50
2023-05-24T01:26:25.068Z,3.40
2023-05-24T01:27:25.073Z,3.70
2023-05-24T01:28:25.054Z,3.30
2023-05-24T01:29:25.037Z,3.30
2023-05-24T01:30:25.032Z,3.20
2023-05-24T01:31:25.068Z,3.60
2023-05-24T01:32:25.084Z,3.50
2023-05-24T01:33:25.000Z,3.50
2023-05-24T01:34:24.988Z,3.20
2023-05-24T01:35:24.966Z,2.90
2023-05-24T01:36:24.971Z,3.30
2023-05-24T01:37:25.176Z,3.90
2023-05-24T01:38:24.900Z,2.70
2023-05-24T01:39:24.898Z,3.50
2023-05-24T01:40:24.859Z,4.40
2023-05-24T01:41:24.873Z,3.90
2023-05-24T01:42:24.840Z,3.30
2023-05-24T01:43:24.866Z,4.50
2023-05-24T01:44:24.820Z,3.60
2023-05-24T01:45:24.832Z,3.70
2023-05-24T01:46:24.815Z,3.50
2023-05-24T01:47:24.824Z,3.90
2023-05-24T01:48:24.784Z,3.50
2023-05-24T01:49:24.802Z,3.60
2023-05-24T01:50:25.948Z,3.80
2023-05-24T01:51:24.747Z,3.50
2023-05-24T01:52:24.763Z,3.40
2023-05-24T01:53:24.741Z,4.40
2023-05-24T01:54:24.751Z,3.80
2023-05-24T01:55:24.744Z,3.80
2023-05-24T01:56:24.702Z,3.40
2023-05-24T01:57:24.693Z,3.90
2023-05-24T01:58:24.673Z,4.00
2023-05-24T01:59:24.665Z,4.00
2023-05-24T02:00:24.658Z,4.50
2023-05-24T02:01:24.725Z,3.70
2023-05-24T02:02:24.778Z,3.90
2023-05-24T02:03:24.682Z,4.10
2023-05-24T02:04:24.614Z,3.90
2023-05-24T02:05:24.620Z,4.50
2023-05-24T02:06:24.600Z,4.30
2023-05-24T02:07:24.618Z,3.90
2023-05-24T02:08:24.575Z,4.50
2023-05-24T02:09:24.567Z,4.50
2023-05-24T02:10:24.565Z,4.40
2023-05-24T02:11:24.553Z,4.80
2023-05-24T02:12:24.524Z,4.30
2023-05-24T02:13:24.555Z,4.60
2023-05-24T02:14:24.508Z,4.30
2023-05-24T02:15:24.510Z,4.90
2023-05-24T02:16:24.516Z,4.40
2023-05-24T02:17:24.511Z,4.50
2023-05-24T02:18:24.473Z,4.50
2023-05-24T02:19:24.496Z,4.20
2023-05-24T02:20:24.513Z,4.10
2023-05-24T02:21:24.441Z,4.00
2023-05-24T02:22:24.424Z,3.80
2023-05-24T02:23:24.419Z,4.30
2023-05-24T02:24:24.410Z,4.70
2023-05-24T02:25:24.425Z,4.60
2023-05-24T02:26:24.390Z,4.80
2023-05-24T02:27:24.410Z,4.40
2023-05-24T02:28:24.379Z,4.40
2023-05-24T02:29:24.365Z,3.90
2023-05-24T02:30:24.343Z,4.70
2023-05-24T02:31:24.387Z,4.60
2023-05-24T02:32:24.335Z,4.20
2023-05-24T02:33:24.318Z,4.10
2023-05-24T02:34:24.307Z,4.40
2023-05-24T02:35:24.303Z,4.30
2023-05-24T02:36:24.274Z,4.80
2023-05-24T02:37:24.300Z,4.20
2023-05-24T02:38:24.257Z,4.40
2023-05-24T02:39:24.249Z,4.70
2023-05-24T02:40:24.317Z,5.00
2023-05-24T02:41:24.238Z,5.10
2023-05-24T02:42:24.220Z,4.80
2023-05-24T02:43:24.233Z,5.20
2023-05-24T02:44:24.190Z,5.00
2023-05-24T02:45:24.314Z,4.90
2023-05-24T02:46:24.201Z,4.40
2023-05-24T02:47:24.208Z,5.60
2023-05-24T02:48:24.146Z,5.00
2023-05-24T02:49:24.848Z,4.70
2023-05-24T02:50:24.137Z,5.30
2023-05-24T02:51:24.118Z,4.60
2023-05-24T02:52:24.115Z,4.70
2023-05-24T02:53:24.106Z,4.60
2023-05-24T02:54:24.086Z,4.80
2023-05-24T02:55:24.106Z,4.70
2023-05-24T02:56:24.064Z,4.70
2023-05-24T02:57:24.075Z,4.60
2023-05-24T02:58:24.062Z,5.00
2023-05-24T02:59:24.040Z,4.70
2023-05-24T03:00:24.017Z,4.70
2023-05-24T03:01:24.081Z,4.00
2023-05-24T03:02:24.046Z,4.60
2023-05-24T03:03:24.129Z,4.30
2023-05-24T03:04:24.005Z,4.40
2023-05-24T03:05:23.985Z,4.40
2023-05-24T03:06:23.965Z,4.70
2023-05-24T03:07:24.010Z,4.10
2023-05-24T03:08:23.948Z,4.10
2023-05-24T03:09:23.947Z,4.60
2023-05-24T03:10:23.927Z,4.40
2023-05-24T03:11:23.947Z,4.30
2023-05-24T03:12:23.894Z,4.40
2023-05-24T03:13:23.923Z,4.20
2023-05-24T03:14:23.897Z,4.30
2023-05-24T03:15:23.886Z,4.10
2023-05-24T03:16:23.909Z,4.50
2023-05-24T03:17:23.862Z,4.10
2023-05-24T03:18:23.842Z,3.90
2023-05-24T03:19:23.872Z,4.60
2023-05-24T03:20:23.895Z,5.20
2023-05-24T03:21:23.864Z,4.60
2023-05-24T03:22:23.804Z,4.70
2023-05-24T03:23:23.794Z,4.20
2023-05-24T03:24:23.773Z,4.90
2023-05-24T03:25:23.794Z,5.10
2023-05-24T03:26:23.763Z,4.70
2023-05-24T03:27:23.761Z,4.80
2023-05-24T03:28:23.752Z,5.10
2023-05-24T03:29:23.781Z,4.90
2023-05-24T03:30:23.725Z,5.40
2023-05-24T03:31:23.754Z,5.20
2023-05-24T03:32:23.732Z,5.00
2023-05-24T03:33:23.695Z,4.30
2023-05-24T03:34:23.670Z,4.40
2023-05-24T03:35:23.665Z,4.20
2023-05-24T03:36:23.645Z,4.20
2023-05-24T03:37:23.680Z,4.80
2023-05-24T03:38:23.642Z,4.80
2023-05-24T03:39:23.627Z,5.30
2023-05-24T03:40:23.617Z,4.30
2023-05-24T03:41:23.601Z,4.40
2023-05-24T03:42:23.582Z,5.10
2023-05-24T03:43:23.603Z,4.50
2023-05-24T03:44:23.564Z,4.80
2023-05-24T03:45:34.508Z,4.90
2023-05-24T03:46:24.567Z,4.60
2023-05-24T03:47:23.564Z,4.40
2023-05-24T03:48:23.542Z,4.90
2023-05-24T03:49:23.539Z,4.80
2023-05-24T03:50:23.511Z,4.50
2023-05-24T03:51:23.498Z,5.20
2023-05-24T03:52:23.490Z,4.70
2023-05-24T03:53:23.641Z,4.90
2023-05-24T03:54:23.463Z,4.70
2023-05-24T03:55:23.484Z,5.20
2023-05-24T03:56:23.440Z,5.20
2023-05-24T03:57:23.429Z,4.90
2023-05-24T03:58:23.439Z,5.40
2023-05-24T03:59:23.430Z,4.50
2023-05-24T04:00:23.397Z,5.20
2023-05-24T04:01:33.256Z,4.80
2023-05-24T04:02:24.446Z,5.30
2023-05-24T04:03:23.399Z,5.20
2023-05-24T04:04:23.406Z,5.00
2023-05-24T04:05:23.348Z,6.00
2023-05-24T04:06:23.341Z,5.40
2023-05-24T04:07:23.353Z,5.30
2023-05-24T04:08:23.318Z,4.80
2023-05-24T04:09:23.307Z,5.00
2023-05-24T04:10:23.314Z,4.90
2023-05-24T04:11:23.298Z,4.70
2023-05-24T04:12:23.269Z,4.90
2023-05-24T04:13:23.308Z,4.50
2023-05-24T04:14:23.265Z,5.20
2023-05-24T04:15:23.261Z,4.90
2023-05-24T04:16:23.261Z,4.80
2023-05-24T04:17:23.388Z,4.80
2023-05-24T04:18:23.320Z,4.80
2023-05-24T04:19:23.224Z,4.00
2023-05-24T04:20:23.260Z,4.40
2023-05-24T04:21:23.196Z,4.50
2023-05-24T04:22:25.473Z,4.40
2023-05-24T04:23:23.174Z,3.90
2023-05-24T04:24:23.158Z,4.40
2023-05-24T04:25:23.178Z,5.00
2023-05-24T04:26:23.121Z,4.60
2023-05-24T04:27:23.116Z,4.30
2023-05-24T04:28:23.111Z,4.30
2023-05-24T04:29:23.110Z,4.80
2023-05-24T04:30:23.101Z,4.10
2023-05-24T04:31:23.161Z,4.70
2023-05-24T04:32:23.143Z,4.90
2023-05-24T04:33:23.063Z,4.20
2023-05-24T04:34:23.053Z,4.20
2023-05-24T04:35:23.036Z,4.30
2023-05-24T04:36:23.025Z,4.50
2023-05-24T04:37:23.047Z,4.30
2023-05-24T04:38:23.014Z,4.70
2023-05-24T04:39:23.019Z,4.00
2023-05-24T04:40:23.067Z,4.90
2023-05-24T04:41:22.984Z,4.40
2023-05-24T04:42:22.964Z,4.40
2023-05-24T04:43:22.985Z,4.40
2023-05-24T04:44:22.948Z,4.40
2023-05-24T04:45:22.933Z,4.50
2023-05-24T04:46:23.027Z,4.50
2023-05-24T04:47:22.945Z,4.10
2023-05-24T04:48:22.896Z,4.60
2023-05-24T04:49:22.931Z,4.00
2023-05-24T04:50:22.872Z,4.20
2023-05-24T04:51:22.878Z,4.50
2023-05-24T04:52:22.878Z,4.10
2023-05-24T04:53:22.849Z,3.90
2023-05-24T04:54:22.835Z,4.40
2023-05-24T04:55:22.858Z,4.40
2023-05-24T04:56:22.819Z,4.10
2023-05-24T04:57:22.808Z,4.10
2023-05-24T04:58:22.815Z,4.20
2023-05-24T04:59:22.792Z,3.80
2023-05-24T05:00:22.791Z,4.40
2023-05-24T05:01:22.823Z,4.10
2023-05-24T05:02:22.786Z,4.20
2023-05-24T05:03:22.803Z,3.70
2023-05-24T05:04:22.731Z,4.10
2023-05-24T05:05:22.721Z,4.10
2023-05-24T05:06:22.711Z,4.30
2023-05-24T05:07:22.738Z,4.70
2023-05-24T05:08:22.698Z,4.50
2023-05-24T05:09:22.687Z,4.60
2023-05-24T05:10:23.914Z,4.90
2023-05-24T05:11:22.666Z,4.60
2023-05-24T05:12:22.674Z,4.70
2023-05-24T05:13:22.778Z,4.20
2023-05-24T05:14:22.638Z,4.50
2023-05-24T05:15:22.620Z,4.50
2023-05-24T05:16:22.671Z,4.60
2023-05-24T05:17:22.597Z,4.50
2023-05-24T05:18:22.577Z,5.00
2023-05-24T05:19:22.619Z,4.70
2023-05-24T05:20:22.640Z,5.10
2023-05-24T05:21:22.552Z,4.50
2023-05-24T05:22:22.553Z,4.30
2023-05-24T05:23:22.530Z,4.90
2023-05-24T05:24:22.522Z,3.90
2023-05-24T05:25:22.571Z,4.60
2023-05-24T05:26:22.502Z,4.00
2023-05-24T05:27:22.483Z,4.40
2023-05-24T05:28:22.488Z,4.80
2023-05-24T05:29:24.278Z,4.30
2023-05-24T05:30:22.472Z,4.60
2023-05-24T05:31:22.471Z,4.70
2023-05-24T05:32:22.539Z,4.40
2023-05-24T05:33:22.476Z,4.60
2023-05-24T05:34:22.423Z,4.10
2023-05-24T05:35:22.398Z,4.20
2023-05-24T05:36:22.397Z,4.40
2023-05-24T05:37:22.413Z,3.90
2023-05-24T05:38:22.370Z,3.70
2023-05-24T05:39:22.363Z,4.30
2023-05-24T05:40:22.354Z,4.50
2023-05-24T05:41:22.362Z,4.60
2023-05-24T05:42:22.346Z,4.30
2023-05-24T05:43:22.362Z,4.60
2023-05-24T05:44:22.316Z,5.00
2023-05-24T05:45:22.310Z,4.50
2023-05-24T05:46:22.436Z,4.50
2023-05-24T05:47:22.455Z,4.30
2023-05-24T05:48:22.267Z,4.80
2023-05-24T05:49:22.289Z,4.50
2023-05-24T05:50:22.273Z,4.10
2023-05-24T05:51:22.241Z,4.40
2023-05-24T05:52:22.223Z,3.90
2023-05-24T05:53:22.217Z,4.90
2023-05-24T05:54:22.214Z,5.00
2023-05-24T05:55:22.263Z,4.20
2023-05-24T05:56:22.192Z,4.10
2023-05-24T05:57:22.175Z,4.20
2023-05-24T05:58:22.163Z,4.30
2023-05-24T05:59:22.144Z,4.80
2023-05-24T06:00:22.146Z,4.50
2023-05-24T06:01:22.172Z,4.50
2023-05-24T06:02:22.156Z,4.30
2023-05-24T06:03:22.296Z,4.00
2023-05-24T06:04:22.147Z,4.20
2023-05-24T06:05:22.090Z,4.20
2023-05-24T06:06:22.098Z,4.40
2023-05-24T06:07:22.087Z,4.50
2023-05-24T06:08:22.057Z,4.50
2023-05-24T06:09:22.053Z,4.10
2023-05-24T06:10:22.034Z,4.10
2023-05-24T06:11:22.038Z,4.10
2023-05-24T06:12:22.015Z,4.60
2023-05-24T06:13:22.034Z,4.30
2023-05-24T06:14:21.997Z,4.20
2023-05-24T06:15:21.981Z,4.80
2023-05-24T06:16:21.979Z,3.70
2023-05-24T06:17:21.978Z,3.80
2023-05-24T06:18:21.958Z,4.10
2023-05-24T06:19:21.992Z,3.70
2023-05-24T06:20:21.964Z,3.70
2023-05-24T06:21:21.910Z,4.30
2023-05-24T06:22:21.906Z,4.00
2023-05-24T06:23:21.899Z,3.90
2023-05-24T06:24:21.890Z,3.90
2023-05-24T06:25:21.901Z,3.80
2023-05-24T06:26:21.865Z,3.70
2023-05-24T06:27:21.852Z,4.10
2023-05-24T06:28:21.852Z,3.80
2023-05-24T06:29:22.174Z,4.00
2023-05-24T06:30:21.916Z,3.80
2023-05-24T06:31:21.854Z,4.10
2023-05-24T06:32:21.855Z,3.70
2023-05-24T06:33:21.782Z,3.70
2023-05-24T06:34:21.874Z,4.10
2023-05-24T06:35:21.775Z,4.00
2023-05-24T06:36:21.767Z,3.90
2023-05-24T06:37:21.781Z,4.10
2023-05-24T06:38:21.750Z,4.20
2023-05-24T06:39:21.733Z,3.80
2023-05-24T06:40:21.748Z,4.20
2023-05-24T06:41:21.711Z,3.60
2023-05-24T06:42:21.700Z,4.00
2023-05-24T06:43:21.714Z,4.30
2023-05-24T06:44:22.844Z,3.80
2023-05-24T06:45:21.655Z,4.10
2023-05-24T06:46:21.667Z,3.70
2023-05-24T06:47:21.800Z,3.90
2023-05-24T06:48:21.702Z,3.60
2023-05-24T06:49:21.655Z,3.80
2023-05-24T06:50:21.621Z,4.00
2023-05-24T06:51:21.612Z,4.00
2023-05-24T06:52:21.607Z,4.30
2023-05-24T06:53:21.582Z,3.70
2023-05-24T06:54:21.588Z,4.10
2023-05-24T06:55:21.584Z,3.80
2023-05-24T06:56:21.557Z,4.10
2023-05-24T06:57:21.539Z,3.60
2023-05-24T06:58:21.529Z,3.70
2023-05-24T06:59:21.521Z,3.70
2023-05-24T07:00:21.512Z,3.40
2023-05-24T07:01:21.569Z,3.80
2023-05-24T07:02:21.549Z,3.60
2023-05-24T07:03:21.474Z,4.10
2023-05-24T07:04:21.555Z,4.10
2023-05-24T07:05:21.458Z,3.70
2023-05-24T07:06:21.452Z,4.20
2023-05-24T07:07:21.462Z,3.90
2023-05-24T07:08:21.434Z,4.10
2023-05-24T07:09:21.437Z,3.80
2023-05-24T07:10:21.411Z,3.70
2023-05-24T07:11:21.440Z,3.80
2023-05-24T07:12:21.384Z,4.20
2023-05-24T07:13:21.398Z,4.40
2023-05-24T07:14:21.372Z,4.40
2023-05-24T07:15:21.377Z,3.90
2023-05-24T07:16:21.375Z,3.80
2023-05-24T07:17:21.338Z,3.90
2023-05-24T07:18:21.334Z,3.70
2023-05-24T07:19:21.331Z,3.70
2023-05-24T07:20:21.349Z,4.00
2023-05-24T07:21:21.285Z,3.90
2023-05-24T07:22:21.315Z,3.70
2023-05-24T07:23:21.261Z,3.90
2023-05-24T07:24:21.262Z,4.10
2023-05-24T07:25:21.291Z,3.80
2023-05-24T07:26:21.241Z,3.80
2023-05-24T07:27:21.241Z,3.90
2023-05-24T07:28:21.242Z,3.60
2023-05-24T07:29:21.202Z,3.50
2023-05-24T07:30:31.808Z,3.40
2023-05-24T07:31:22.208Z,3.80
2023-05-24T07:32:21.178Z,3.50
2023-05-24T07:33:21.238Z,3.60
2023-05-24T07:34:21.157Z,3.60
2023-05-24T07:35:21.137Z,3.10
2023-05-24T07:36:21.128Z,3.50
2023-05-24T07:37:21.151Z,3.20
2023-05-24T07:38:21.105Z,3.20
2023-05-24T07:39:21.095Z,3.20
2023-05-24T07:40:21.090Z,3.30
2023-05-24T07:41:21.078Z,3.50
2023-05-24T07:42:21.072Z,3.30
2023-05-24T07:43:21.081Z,3.20
2023-05-24T07:44:21.046Z,2.90
2023-05-24T07:45:21.031Z,2.80
2023-05-24T07:46:21.058Z,2.50
2023-05-24T07:47:21.014Z,3.00
2023-05-24T07:48:21.011Z,2.60
2023-05-24T07:49:21.027Z,2.40
2023-05-24T07:50:20.980Z,2.50
2023-05-24T07:51:20.979Z,2.60
2023-05-24T07:52:20.964Z,2.60
2023-05-24T07:53:20.947Z,2.90
2023-05-24T07:54:20.947Z,2.70
2023-05-24T07:55:20.951Z,2.40
2023-05-24T07:56:20.917Z,2.40
2023-05-24T07:57:20.909Z,2.50
2023-05-24T07:58:20.909Z,2.40
2023-05-24T07:59:20.889Z,2.00
2023-05-24T08:00:20.900Z,2.50
2023-05-24T08:01:20.900Z,2.40
2023-05-24T08:02:20.957Z,2.50
2023-05-24T08:03:20.954Z,2.10
2023-05-24T08:04:20.842Z,2.40
2023-05-24T08:05:20.830Z,2.40
2023-05-24T08:06:20.879Z,2.20
2023-05-24T08:07:20.901Z,2.10
2023-05-24T08:08:20.804Z,2.30
2023-05-24T08:09:20.786Z,2.10
2023-05-24T08:10:20.781Z,2.30
2023-05-24T08:11:20.758Z,2.20
2023-05-24T08:12:20.760Z,2.20
2023-05-24T08:13:20.773Z,2.00
2023-05-24T08:14:20.729Z,2.10
2023-05-24T08:15:20.719Z,2.10
2023-05-24T08:16:20.771Z,2.10
2023-05-24T08:17:20.702Z,1.90
2023-05-24T08:18:20.690Z,2.10
2023-05-24T08:19:20.709Z,2.20
2023-05-24T08:20:20.817Z,2.10
2023-05-24T08:21:20.662Z,2.10
2023-05-24T08:22:20.656Z,2.30
2023-05-24T08:23:20.640Z,2.10
2023-05-24T08:24:20.638Z,2.20
2023-05-24T08:25:20.664Z,2.20
2023-05-24T08:26:20.613Z,2.20
2023-05-24T08:27:20.599Z,2.10
2023-05-24T08:28:20.643Z,2.20
2023-05-24T08:29:20.591Z,1.90
2023-05-24T08:30:20.588Z,2.20
2023-05-24T08:31:20.597Z,2.20
2023-05-24T08:32:20.547Z,1.90
2023-05-24T08:33:20.528Z,2.20
2023-05-24T08:34:20.523Z,2.30
2023-05-24T08:35:21.921Z,1.80
2023-05-24T08:36:20.508Z,1.70
2023-05-24T08:37:20.543Z,2.00
2023-05-24T08:38:20.491Z,1.80
2023-05-24T08:39:20.474Z,2.00
2023-05-24T08:40:20.465Z,2.00
2023-05-24T08:41:20.444Z,2.00
2023-05-24T08:42:20.442Z,2.20
2023-05-24T08:43:20.450Z,1.90
2023-05-24T08:44:20.409Z,2.10
2023-05-24T08:45:20.420Z,2.00
2023-05-24T08:46:20.432Z,2.20
2023-05-24T08:47:20.385Z,1.80
2023-05-24T08:48:20.431Z,2.00
2023-05-24T08:49:20.409Z,2.00
2023-05-24T08:50:20.476Z,2.10
2023-05-24T08:51:20.367Z,2.10
2023-05-24T08:52:20.339Z,1.70
2023-05-24T08:53:20.317Z,2.00
2023-05-24T08:54:20.310Z,1.90
2023-05-24T08:55:20.356Z,1.90
2023-05-24T08:56:20.312Z,1.80
2023-05-24T08:57:20.271Z,2.00
2023-05-24T08:58:20.277Z,1.90
2023-05-24T08:59:20.257Z,2.00
2023-05-24T09:00:20.260Z,1.90
2023-05-24T09:01:20.292Z,1.90
2023-05-24T09:02:20.247Z,1.80
2023-05-24T09:03:20.306Z,1.80
2023-05-24T09:04:20.337Z,1.50
2023-05-24T09:05:20.189Z,2.00
2023-05-24T09:06:20.223Z,1.90
2023-05-24T09:07:20.219Z,1.90
2023-05-24T09:08:20.173Z,2.00
2023-05-24T09:09:20.151Z,1.90
2023-05-24T09:10:20.154Z,2.00
2023-05-24T09:11:20.137Z,2.10
2023-05-24T09:12:35.342Z,1.70
2023-05-24T09:13:21.156Z,1.90
2023-05-24T09:14:20.109Z,2.00
2023-05-24T09:15:20.090Z,1.70
2023-05-24T09:16:20.175Z,1.70
2023-05-24T09:17:20.079Z,1.60
2023-05-24T09:18:20.118Z,1.80
2023-05-24T09:19:20.136Z,1.90
2023-05-24T09:20:20.103Z,1.90
2023-05-24T09:21:20.031Z,2.00
2023-05-24T09:22:20.040Z,1.80
2023-05-24T09:23:20.044Z,1.80
2023-05-24T09:24:20.023Z,1.90
2023-05-24T09:25:20.202Z,1.80
2023-05-24T09:26:19.980Z,1.80
2023-05-24T09:27:19.971Z,1.60
2023-05-24T09:28:19.960Z,1.80
2023-05-24T09:29:19.955Z,1.80
2023-05-24T09:30:19.954Z,2.00
2023-05-24T09:31:20.024Z,1.90
2023-05-24T09:32:19.912Z,1.60
2023-05-24T09:33:19.911Z,1.70
2023-05-24T09:34:19.894Z,1.60
2023-05-24T09:35:19.896Z,1.90
2023-05-24T09:36:19.876Z,1.70
2023-05-24T09:37:20.325Z,1.80
2023-05-24T09:38:19.865Z,1.70
2023-05-24T09:39:19.854Z,3.00
2023-05-24T09:40:19.883Z,1.70
2023-05-24T09:41:19.840Z,1.90
2023-05-24T09:42:19.816Z,1.60
2023-05-24T09:43:19.829Z,1.90
2023-05-24T09:44:19.798Z,1.60
2023-05-24T09:45:19.785Z,1.70
2023-05-24T09:46:19.895Z,1.70
2023-05-24T09:47:19.911Z,1.70
2023-05-24T09:48:19.787Z,1.60
2023-05-24T09:49:19.765Z,1.60
2023-05-24T09:50:19.760Z,1.60
2023-05-24T09:51:19.776Z,1.70
2023-05-24T09:52:19.730Z,1.70
2023-05-24T09:53:19.720Z,1.60
2023-05-24T09:54:19.697Z,1.50
2023-05-24T09:55:19.704Z,1.40
2023-05-24T09:56:19.685Z,1.40
2023-05-24T09:57:19.680Z,1.60
2023-05-24T09:58:19.649Z,1.80
2023-05-24T09:59:19.647Z,1.60
2023-05-24T10:00:19.642Z,1.50
2023-05-24T10:01:19.686Z,1.60
2023-05-24T10:02:19.610Z,1.60
2023-05-24T10:03:19.704Z,1.50
2023-05-24T10:04:19.727Z,1.60
2023-05-24T10:05:19.580Z,1.60
2023-05-24T10:06:19.576Z,1.40
2023-05-24T10:07:19.594Z,1.50
2023-05-24T10:08:19.549Z,1.70
2023-05-24T10:09:19.553Z,1.70
2023-05-24T10:10:19.535Z,1.50
2023-05-24T10:11:19.539Z,1.80
2023-05-24T10:12:19.518Z,1.90
2023-05-24T10:13:19.550Z,1.70
2023-05-24T10:14:19.497Z,1.80
2023-05-24T10:15:19.494Z,1.60
2023-05-24T10:16:19.505Z,1.70
2023-05-24T10:17:19.473Z,1.80
2023-05-24T10:18:19.515Z,1.70
2023-05-24T10:19:19.469Z,1.40
2023-05-24T10:20:19.488Z,2.20
2023-05-24T10:21:19.451Z,1.90
2023-05-24T10:22:19.455Z,1.60
2023-05-24T10:23:19.405Z,1.60
2023-05-24T10:24:19.391Z,1.40
2023-05-24T10:25:19.427Z,1.90
2023-05-24T10:26:19.370Z,1.70
2023-05-24T10:27:19.387Z,1.70
2023-05-24T10:28:19.367Z,1.90
2023-05-24T10:29:19.354Z,1.70
2023-05-24T10:30:19.336Z,1.60
2023-05-24T10:31:19.428Z,1.80
2023-05-24T10:32:19.320Z,1.80
2023-05-24T10:33:19.319Z,1.70
2023-05-24T10:34:19.311Z,1.80
2023-05-24T10:35:19.299Z,1.70
2023-05-24T10:36:19.263Z,1.50
2023-05-24T10:37:19.354Z,1.80
2023-05-24T10:38:19.304Z,1.70
2023-05-24T10:39:19.256Z,1.60
2023-05-24T10:40:19.255Z,1.80
2023-05-24T10:41:19.296Z,1.60
2023-05-24T10:42:19.229Z,1.60
2023-05-24T10:43:19.249Z,1.70
2023-05-24T10:44:19.274Z,1.40
2023-05-24T10:45:19.209Z,1.50
2023-05-24T10:46:19.207Z,1.70
2023-05-24T10:47:19.201Z,1.90
2023-05-24T10:48:19.171Z,1.70
2023-05-24T10:49:19.334Z,1.60
2023-05-24T10:50:19.145Z,1.60
2023-05-24T10:51:19.150Z,1.60
2023-05-24T10:52:19.132Z,1.50
2023-05-24T10:53:19.263Z,1.50
2023-05-24T10:54:19.207Z,1.80
2023-05-24T10:55:19.269Z,1.70
2023-05-24T10:56:19.098Z,1.60
2023-05-24T10:57:19.163Z,1.50
2023-05-24T10:58:19.095Z,1.80
2023-05-24T10:59:19.072Z,1.70
2023-05-24T11:00:30.711Z,1.60
2023-05-24T11:01:20.155Z,1.80
2023-05-24T11:02:19.171Z,1.60
2023-05-24T11:03:19.019Z,1.50
2023-05-24T11:04:19.028Z,1.70
2023-05-24T11:05:19.040Z,1.70
2023-05-24T11:06:18.963Z,1.90
2023-05-24T11:07:19.006Z,1.70
2023-05-24T11:08:18.966Z,1.80
2023-05-24T11:09:18.999Z,1.60
2023-05-24T11:10:19.000Z,1.50
2023-05-24T11:11:26.720Z,1.50
2023-05-24T11:12:19.963Z,1.50
2023-05-24T11:13:18.943Z,1.60
2023-05-24T11:14:18.968Z,1.90
2023-05-24T11:15:18.895Z,1.50
2023-05-24T11:16:18.940Z,1.80
2023-05-24T11:17:18.881Z,1.60
2023-05-24T11:18:18.956Z,1.80
2023-05-24T11:19:18.840Z,1.60
2023-05-24T11:20:18.934Z,1.80
2023-05-24T11:21:18.824Z,1.60
2023-05-24T11:22:18.832Z,2.00
2023-05-24T11:23:18.848Z,1.60
2023-05-24T11:24:18.827Z,1.80
2023-05-24T11:25:18.791Z,1.90
2023-05-24T11:26:18.760Z,1.90
2023-05-24T11:27:18.761Z,1.80
2023-05-24T11:28:18.815Z,1.70
2023-05-24T11:29:18.751Z,1.70
2023-05-24T11:30:18.752Z,1.40
2023-05-24T11:31:18.818Z,1.70
2023-05-24T11:32:18.910Z,1.60
2023-05-24T11:33:18.787Z,1.50
2023-05-24T11:34:18.676Z,1.60
2023-05-24T11:35:18.678Z,1.70
2023-05-24T11:36:18.975Z,2.00
2023-05-24T11:37:19.043Z,1.70
2023-05-24T11:38:18.646Z,1.80
2023-05-24T11:39:18.641Z,1.80
2023-05-24T11:40:18.606Z,1.70
2023-05-24T11:41:18.633Z,1.60
2023-05-24T11:42:18.648Z,1.60
2023-05-24T11:43:18.602Z,1.90
2023-05-24T11:44:18.604Z,1.50
2023-05-24T11:45:18.568Z,1.40
2023-05-24T11:46:18.561Z,1.90
2023-05-24T11:47:18.539Z,1.60
2023-05-24T11:48:18.549Z,1.60
2023-05-24T11:49:18.529Z,1.70
2023-05-24T11:50:18.551Z,1.70
2023-05-24T11:51:18.516Z,1.70
2023-05-24T11:52:18.483Z,1.60
2023-05-24T11:53:18.488Z,1.70
2023-05-24T11:54:18.503Z,1.70
2023-05-24T11:55:18.474Z,1.90
2023-05-24T11:56:18.452Z,1.60
2023-05-24T11:57:18.450Z,1.80
2023-05-24T11:58:18.421Z,1.50
2023-05-24T11:59:18.426Z,1.80
2023-05-24T12:00:18.437Z,1.70
2023-05-24T12:01:18.385Z,1.70
2023-05-24T12:02:18.424Z,1.50
2023-05-24T12:03:18.496Z,1.60
2023-05-24T12:04:18.441Z,1.60
2023-05-24T12:05:18.360Z,1.60
2023-05-24T12:06:18.382Z,1.60
2023-05-24T12:07:18.335Z,1.70
2023-05-24T12:08:18.332Z,1.80
2023-05-24T12:09:18.316Z,1.70
2023-05-24T12:10:19.119Z,1.80
2023-05-24T12:11:18.314Z,1.60
2023-05-24T12:12:18.898Z,1.40
2023-05-24T12:13:18.266Z,1.60
2023-05-24T12:14:18.268Z,1.90
2023-05-24T12:15:18.272Z,1.60
2023-05-24T12:16:18.246Z,1.80
2023-05-24T12:17:18.240Z,1.60
2023-05-24T12:18:18.388Z,1.70
2023-05-24T12:19:31.809Z,1.30
2023-05-24T12:20:19.250Z,1.60
2023-05-24T12:21:18.203Z,1.80
2023-05-24T12:22:18.169Z,1.50
2023-05-24T12:23:18.154Z,1.50
2023-05-24T12:24:19.099Z,1.40
2023-05-24T12:25:18.149Z,1.50
2023-05-24T12:26:18.129Z,1.80
2023-05-24T12:27:18.132Z,1.50
2023-05-24T12:28:18.108Z,1.60
2023-05-24T12:29:18.092Z,1.70
2023-05-24T12:30:18.099Z,1.50
2023-05-24T12:31:18.129Z,1.60
2023-05-24T12:32:18.053Z,1.80
2023-05-24T12:33:18.044Z,1.70
2023-05-24T12:34:18.041Z,1.40
2023-05-24T12:35:18.044Z,1.60
2023-05-24T12:36:18.037Z,1.60
2023-05-24T12:37:18.014Z,1.70
2023-05-24T12:38:17.976Z,1.90
2023-05-24T12:39:17.984Z,1.80
2023-05-24T12:40:17.972Z,1.60
2023-05-24T12:41:17.960Z,1.50
2023-05-24T12:42:17.963Z,1.50
2023-05-24T12:43:17.954Z,1.90
2023-05-24T12:44:17.934Z,1.70
2023-05-24T12:45:17.910Z,1.60
2023-05-24T12:46:17.905Z,1.60
2023-05-24T12:47:17.974Z,1.70
2023-05-24T12:48:17.959Z,1.60
2023-05-24T12:49:17.862Z,1.70
2023-05-24T12:50:17.863Z,1.70
2023-05-24T12:51:17.881Z,1.80
2023-05-24T12:52:17.874Z,1.60
2023-05-24T12:53:17.830Z,1.70
2023-05-24T12:54:17.862Z,1.50
2023-05-24T12:55:17.826Z,1.70
2023-05-24T12:56:17.840Z,1.60
2023-05-24T12:57:17.811Z,1.50
2023-05-24T12:58:17.799Z,1.60
2023-05-24T12:59:17.761Z,1.50
2023-05-24T13:00:17.793Z,1.70
2023-05-24T13:01:17.785Z,1.60
2023-05-24T13:02:17.728Z,1.80
2023-05-24T13:03:17.782Z,1.50
2023-05-24T13:04:17.729Z,1.60
2023-05-24T13:05:17.768Z,1.50
2023-05-24T13:06:17.751Z,1.60
2023-05-24T13:07:17.683Z,1.70
2023-05-24T13:08:17.673Z,1.60
2023-05-24T13:09:17.657Z,1.70
2023-05-24T13:10:17.672Z,1.50
2023-05-24T13:11:17.637Z,1.50
2023-05-24T13:12:17.677Z,1.70
2023-05-24T13:13:17.622Z,1.70
2023-05-24T13:14:17.599Z,1.60
2023-05-24T13:15:17.596Z,1.90
2023-05-24T13:16:17.632Z,1.40
2023-05-24T13:17:17.609Z,1.60
2023-05-24T13:18:17.581Z,1.60